sensor_id;sensor_type;location;lat;lon;timestamp;P1;durP1;ratioP1;P2;durP2;ratioP2
29568;SDS011;16501;51.462;14.346;2022-10-28T00:00:45;8.57;;;5.30;;
29568;SDS011;16501;51.462;14.346;2022-10-28T00:03:12;9.38;;;4.68;;
29568;SDS011;16501;51.462;14.346;2022-10-28T00:05:39;12.00;;;5.90;;
29568;SDS011;16501;51.462;14.346;2022-10-28T00:08:04;12.75;;;5.47;;
29568;SDS011;16501;51.462;14.346;2022-10-28T00:10:30;9.75;;;5.05;;
29568;SDS011;16501;51.462;14.346;2022-10-28T00:12:56;11.02;;;5.57;;
29568;SDS011;16501;51.462;14.346;2022-10-28T00:15:21;11.45;;;5.30;;
29568;SDS011;16501;51.462;14.346;2022-10-28T00:17:47;8.13;;;4.70;;
29568;SDS011;16501;51.462;14.346;2022-10-28T00:20:13;8.52;;;5.07;;
29568;SDS011;16501;51.462;14.346;2022-10-28T00:22:40;8.77;;;4.88;;
29568;SDS011;16501;51.462;14.346;2022-10-28T00:25:05;8.80;;;4.43;;
29568;SDS011;16501;51.462;14.346;2022-10-28T00:27:31;8.57;;;5.28;;
29568;SDS011;16501;51.462;14.346;2022-10-28T00:29:57;11.57;;;4.80;;
29568;SDS011;16501;51.462;14.346;2022-10-28T00:32:22;8.63;;;5.00;;
29568;SDS011;16501;51.462;14.346;2022-10-28T00:34:48;10.13;;;5.72;;
29568;SDS011;16501;51.462;14.346;2022-10-28T00:37:13;10.75;;;5.15;;
29568;SDS011;16501;51.462;14.346;2022-10-28T00:39:38;9.68;;;5.03;;
29568;SDS011;16501;51.462;14.346;2022-10-28T00:42:04;11.85;;;5.18;;
29568;SDS011;16501;51.462;14.346;2022-10-28T00:47:31;10.17;;;5.50;;
29568;SDS011;16501;51.462;14.346;2022-10-28T00:50:03;7.43;;;5.13;;
29568;SDS011;16501;51.462;14.346;2022-10-28T00:52:36;14.70;;;5.43;;
29568;SDS011;16501;51.462;14.346;2022-10-28T00:55:02;15.93;;;5.15;;
29568;SDS011;16501;51.462;14.346;2022-10-28T00:57:31;9.02;;;5.53;;
29568;SDS011;16501;51.462;14.346;2022-10-28T01:00:06;9.18;;;4.80;;
29568;SDS011;16501;51.462;14.346;2022-10-28T01:02:33;10.15;;;5.60;;
29568;SDS011;16501;51.462;14.346;2022-10-28T01:05:07;14.45;;;5.97;;
29568;SDS011;16501;51.462;14.346;2022-10-28T01:07:33;9.43;;;5.50;;
29568;SDS011;16501;51.462;14.346;2022-10-28T01:09:58;12.75;;;6.28;;
29568;SDS011;16501;51.462;14.346;2022-10-28T01:14:57;7.90;;;5.22;;
29568;SDS011;16501;51.462;14.346;2022-10-28T01:31:23;11.35;;;5.38;;
29568;SDS011;16501;51.462;14.346;2022-10-28T01:33:58;12.15;;;5.55;;
29568;SDS011;16501;51.462;14.346;2022-10-28T01:36:41;8.02;;;4.75;;
29568;SDS011;16501;51.462;14.346;2022-10-28T01:39:18;10.38;;;5.43;;
29568;SDS011;16501;51.462;14.346;2022-10-28T01:41:59;12.80;;;5.47;;
29568;SDS011;16501;51.462;14.346;2022-10-28T01:47:46;10.45;;;5.85;;
29568;SDS011;16501;51.462;14.346;2022-10-28T01:50:19;12.23;;;5.68;;
29568;SDS011;16501;51.462;14.346;2022-10-28T01:52:48;15.45;;;6.30;;
29568;SDS011;16501;51.462;14.346;2022-10-28T01:55:27;10.20;;;6.22;;
29568;SDS011;16501;51.462;14.346;2022-10-28T01:57:58;12.13;;;5.82;;
29568;SDS011;16501;51.462;14.346;2022-10-28T02:00:25;13.48;;;6.65;;
29568;SDS011;16501;51.462;14.346;2022-10-28T02:02:51;10.98;;;6.00;;
29568;SDS011;16501;51.462;14.346;2022-10-28T02:08:18;9.90;;;6.07;;
29568;SDS011;16501;51.462;14.346;2022-10-28T02:14:16;10.82;;;6.82;;
29568;SDS011;16501;51.462;14.346;2022-10-28T02:20:16;18.33;;;6.75;;
29568;SDS011;16501;51.462;14.346;2022-10-28T02:26:09;13.70;;;6.68;;
29568;SDS011;16501;51.462;14.346;2022-10-28T02:31:28;14.82;;;6.97;;
29568;SDS011;16501;51.462;14.346;2022-10-28T02:33:59;14.52;;;7.43;;
29568;SDS011;16501;51.462;14.346;2022-10-28T02:36:31;16.77;;;6.88;;
29568;SDS011;16501;51.462;14.346;2022-10-28T02:39:03;12.00;;;6.97;;
29568;SDS011;16501;51.462;14.346;2022-10-28T02:44:17;14.50;;;7.07;;
29568;SDS011;16501;51.462;14.346;2022-10-28T02:46:49;15.32;;;7.53;;
29568;SDS011;16501;51.462;14.346;2022-10-28T02:49:15;13.38;;;7.47;;
29568;SDS011;16501;51.462;14.346;2022-10-28T02:51:43;18.48;;;7.05;;
29568;SDS011;16501;51.462;14.346;2022-10-28T02:54:15;13.48;;;7.30;;
29568;SDS011;16501;51.462;14.346;2022-10-28T02:56:54;15.90;;;7.90;;
29568;SDS011;16501;51.462;14.346;2022-10-28T03:01:51;12.13;;;6.70;;
29568;SDS011;16501;51.462;14.346;2022-10-28T03:04:16;21.63;;;7.28;;
29568;SDS011;16501;51.462;14.346;2022-10-28T03:06:42;16.95;;;7.40;;
29568;SDS011;16501;51.462;14.346;2022-10-28T03:09:08;14.35;;;7.20;;
29568;SDS011;16501;51.462;14.346;2022-10-28T03:11:35;13.13;;;7.13;;
29568;SDS011;16501;51.462;14.346;2022-10-28T03:14:01;17.98;;;7.53;;
29568;SDS011;16501;51.462;14.346;2022-10-28T03:16:26;13.32;;;7.57;;
29568;SDS011;16501;51.462;14.346;2022-10-28T03:18:52;13.43;;;7.18;;
29568;SDS011;16501;51.462;14.346;2022-10-28T03:21:18;12.80;;;6.80;;
29568;SDS011;16501;51.462;14.346;2022-10-28T03:23:43;17.50;;;7.90;;
29568;SDS011;16501;51.462;14.346;2022-10-28T03:26:09;13.18;;;6.80;;
29568;SDS011;16501;51.462;14.346;2022-10-28T03:28:34;18.63;;;7.20;;
29568;SDS011;16501;51.462;14.346;2022-10-28T03:30:59;13.95;;;7.07;;
29568;SDS011;16501;51.462;14.346;2022-10-28T03:33:24;15.75;;;7.40;;
29568;SDS011;16501;51.462;14.346;2022-10-28T03:35:50;19.42;;;7.80;;
29568;SDS011;16501;51.462;14.346;2022-10-28T03:38:15;17.75;;;7.38;;
29568;SDS011;16501;51.462;14.346;2022-10-28T03:40:41;18.58;;;7.38;;
29568;SDS011;16501;51.462;14.346;2022-10-28T03:43:06;15.70;;;6.90;;
29568;SDS011;16501;51.462;14.346;2022-10-28T03:45:31;15.23;;;7.15;;
29568;SDS011;16501;51.462;14.346;2022-10-28T03:47:57;19.67;;;6.93;;
29568;SDS011;16501;51.462;14.346;2022-10-28T03:50:22;16.90;;;6.25;;
29568;SDS011;16501;51.462;14.346;2022-10-28T03:52:47;20.35;;;8.05;;
29568;SDS011;16501;51.462;14.346;2022-10-28T03:55:13;12.02;;;7.13;;
29568;SDS011;16501;51.462;14.346;2022-10-28T03:57:38;15.93;;;6.82;;
29568;SDS011;16501;51.462;14.346;2022-10-28T04:00:04;11.73;;;6.43;;
29568;SDS011;16501;51.462;14.346;2022-10-28T04:02:30;12.38;;;6.78;;
29568;SDS011;16501;51.462;14.346;2022-10-28T04:04:55;13.10;;;6.97;;
29568;SDS011;16501;51.462;14.346;2022-10-28T04:07:20;18.85;;;7.38;;
29568;SDS011;16501;51.462;14.346;2022-10-28T04:09:46;11.13;;;6.90;;
29568;SDS011;16501;51.462;14.346;2022-10-28T04:12:15;15.40;;;7.47;;
29568;SDS011;16501;51.462;14.346;2022-10-28T04:14:40;16.70;;;6.88;;
29568;SDS011;16501;51.462;14.346;2022-10-28T04:17:05;11.48;;;6.90;;
29568;SDS011;16501;51.462;14.346;2022-10-28T04:19:31;9.85;;;6.63;;
29568;SDS011;16501;51.462;14.346;2022-10-28T04:21:56;13.75;;;6.60;;
29568;SDS011;16501;51.462;14.346;2022-10-28T04:24:21;22.08;;;7.38;;
29568;SDS011;16501;51.462;14.346;2022-10-28T04:26:47;13.15;;;6.97;;
29568;SDS011;16501;51.462;14.346;2022-10-28T04:29:12;17.70;;;7.30;;
29568;SDS011;16501;51.462;14.346;2022-10-28T04:31:37;12.45;;;6.93;;
29568;SDS011;16501;51.462;14.346;2022-10-28T04:34:03;15.75;;;7.18;;
29568;SDS011;16501;51.462;14.346;2022-10-28T04:36:29;14.30;;;6.95;;
29568;SDS011;16501;51.462;14.346;2022-10-28T04:38:54;13.25;;;7.07;;
29568;SDS011;16501;51.462;14.346;2022-10-28T04:41:20;11.23;;;6.57;;
29568;SDS011;16501;51.462;14.346;2022-10-28T04:43:47;11.27;;;6.97;;
29568;SDS011;16501;51.462;14.346;2022-10-28T04:46:12;13.02;;;7.82;;
29568;SDS011;16501;51.462;14.346;2022-10-28T04:48:37;13.93;;;6.47;;
29568;SDS011;16501;51.462;14.346;2022-10-28T04:51:03;12.80;;;6.80;;
29568;SDS011;16501;51.462;14.346;2022-10-28T04:53:29;15.30;;;7.07;;
29568;SDS011;16501;51.462;14.346;2022-10-28T04:55:58;13.65;;;7.72;;
29568;SDS011;16501;51.462;14.346;2022-10-28T04:58:24;14.70;;;7.13;;
29568;SDS011;16501;51.462;14.346;2022-10-28T05:00:49;16.38;;;7.40;;
29568;SDS011;16501;51.462;14.346;2022-10-28T05:03:15;13.45;;;7.57;;
29568;SDS011;16501;51.462;14.346;2022-10-28T05:05:40;13.80;;;7.90;;
29568;SDS011;16501;51.462;14.346;2022-10-28T05:08:06;20.38;;;7.43;;
29568;SDS011;16501;51.462;14.346;2022-10-28T05:10:32;17.73;;;8.38;;
29568;SDS011;16501;51.462;14.346;2022-10-28T05:12:58;24.20;;;8.63;;
29568;SDS011;16501;51.462;14.346;2022-10-28T05:15:23;15.13;;;7.38;;
29568;SDS011;16501;51.462;14.346;2022-10-28T05:17:50;16.45;;;8.52;;
29568;SDS011;16501;51.462;14.346;2022-10-28T05:20:17;17.88;;;7.50;;
29568;SDS011;16501;51.462;14.346;2022-10-28T05:22:44;16.27;;;8.77;;
29568;SDS011;16501;51.462;14.346;2022-10-28T05:25:17;21.42;;;7.88;;
29568;SDS011;16501;51.462;14.346;2022-10-28T05:27:43;14.52;;;7.75;;
29568;SDS011;16501;51.462;14.346;2022-10-28T05:30:08;16.70;;;8.23;;
29568;SDS011;16501;51.462;14.346;2022-10-28T05:32:35;15.20;;;8.52;;
29568;SDS011;16501;51.462;14.346;2022-10-28T05:35:01;12.07;;;8.52;;
29568;SDS011;16501;51.462;14.346;2022-10-28T05:37:26;14.00;;;8.82;;
29568;SDS011;16501;51.462;14.346;2022-10-28T05:39:51;17.23;;;9.05;;
29568;SDS011;16501;51.462;14.346;2022-10-28T05:42:17;15.25;;;8.07;;
29568;SDS011;16501;51.462;14.346;2022-10-28T05:44:43;14.80;;;8.40;;
29568;SDS011;16501;51.462;14.346;2022-10-28T05:47:08;15.82;;;9.48;;
29568;SDS011;16501;51.462;14.346;2022-10-28T05:49:34;23.02;;;9.95;;
29568;SDS011;16501;51.462;14.346;2022-10-28T05:51:59;15.88;;;8.85;;
29568;SDS011;16501;51.462;14.346;2022-10-28T05:54:25;14.30;;;8.85;;
29568;SDS011;16501;51.462;14.346;2022-10-28T05:56:50;14.18;;;9.10;;
29568;SDS011;16501;51.462;14.346;2022-10-28T05:59:15;16.75;;;9.48;;
29568;SDS011;16501;51.462;14.346;2022-10-28T06:01:42;18.63;;;10.00;;
29568;SDS011;16501;51.462;14.346;2022-10-28T06:04:07;18.20;;;9.20;;
29568;SDS011;16501;51.462;14.346;2022-10-28T06:06:34;21.45;;;10.13;;
29568;SDS011;16501;51.462;14.346;2022-10-28T06:08:59;16.63;;;10.50;;
29568;SDS011;16501;51.462;14.346;2022-10-28T06:11:25;20.05;;;10.00;;
29568;SDS011;16501;51.462;14.346;2022-10-28T06:13:51;16.05;;;10.63;;
29568;SDS011;16501;51.462;14.346;2022-10-28T06:16:16;15.27;;;9.63;;
29568;SDS011;16501;51.462;14.346;2022-10-28T06:18:42;15.90;;;9.70;;
29568;SDS011;16501;51.462;14.346;2022-10-28T06:21:07;17.65;;;9.57;;
29568;SDS011;16501;51.462;14.346;2022-10-28T06:23:32;16.80;;;9.68;;
29568;SDS011;16501;51.462;14.346;2022-10-28T06:25:59;15.48;;;9.27;;
29568;SDS011;16501;51.462;14.346;2022-10-28T06:28:26;17.23;;;10.30;;
29568;SDS011;16501;51.462;14.346;2022-10-28T06:30:52;14.15;;;9.70;;
29568;SDS011;16501;51.462;14.346;2022-10-28T06:33:19;23.85;;;10.45;;
29568;SDS011;16501;51.462;14.346;2022-10-28T06:35:44;20.75;;;10.60;;
29568;SDS011;16501;51.462;14.346;2022-10-28T06:38:09;22.63;;;10.57;;
29568;SDS011;16501;51.462;14.346;2022-10-28T06:40:35;19.10;;;10.23;;
29568;SDS011;16501;51.462;14.346;2022-10-28T06:43:01;17.33;;;10.02;;
29568;SDS011;16501;51.462;14.346;2022-10-28T06:45:29;19.17;;;10.80;;
29568;SDS011;16501;51.462;14.346;2022-10-28T06:48:00;17.77;;;9.80;;
29568;SDS011;16501;51.462;14.346;2022-10-28T06:50:28;18.30;;;9.65;;
29568;SDS011;16501;51.462;14.346;2022-10-28T06:52:55;16.45;;;10.18;;
29568;SDS011;16501;51.462;14.346;2022-10-28T06:55:21;15.05;;;10.30;;
29568;SDS011;16501;51.462;14.346;2022-10-28T06:57:47;18.00;;;10.40;;
29568;SDS011;16501;51.462;14.346;2022-10-28T07:00:12;19.10;;;10.02;;
29568;SDS011;16501;51.462;14.346;2022-10-28T07:02:39;19.42;;;9.55;;
29568;SDS011;16501;51.462;14.346;2022-10-28T07:05:05;17.83;;;10.15;;
29568;SDS011;16501;51.462;14.346;2022-10-28T07:07:30;19.42;;;10.25;;
29568;SDS011;16501;51.462;14.346;2022-10-28T07:09:56;19.83;;;9.40;;
29568;SDS011;16501;51.462;14.346;2022-10-28T07:12:21;17.63;;;9.90;;
29568;SDS011;16501;51.462;14.346;2022-10-28T07:14:47;14.45;;;9.30;;
29568;SDS011;16501;51.462;14.346;2022-10-28T07:17:14;17.35;;;8.52;;
29568;SDS011;16501;51.462;14.346;2022-10-28T07:19:39;16.35;;;9.90;;
29568;SDS011;16501;51.462;14.346;2022-10-28T07:22:04;14.50;;;9.82;;
29568;SDS011;16501;51.462;14.346;2022-10-28T07:24:31;22.42;;;9.75;;
29568;SDS011;16501;51.462;14.346;2022-10-28T07:26:56;14.07;;;9.18;;
29568;SDS011;16501;51.462;14.346;2022-10-28T07:29:21;12.82;;;8.73;;
29568;SDS011;16501;51.462;14.346;2022-10-28T07:31:47;15.93;;;8.43;;
29568;SDS011;16501;51.462;14.346;2022-10-28T07:34:12;15.10;;;7.90;;
29568;SDS011;16501;51.462;14.346;2022-10-28T07:36:39;16.55;;;9.38;;
29568;SDS011;16501;51.462;14.346;2022-10-28T07:39:04;12.60;;;8.10;;
29568;SDS011;16501;51.462;14.346;2022-10-28T07:41:29;15.77;;;8.40;;
29568;SDS011;16501;51.462;14.346;2022-10-28T07:43:55;10.05;;;7.47;;
29568;SDS011;16501;51.462;14.346;2022-10-28T07:46:20;16.88;;;10.15;;
29568;SDS011;16501;51.462;14.346;2022-10-28T07:48:45;15.57;;;7.53;;
29568;SDS011;16501;51.462;14.346;2022-10-28T07:51:12;18.35;;;8.75;;
29568;SDS011;16501;51.462;14.346;2022-10-28T07:53:39;14.75;;;8.00;;
29568;SDS011;16501;51.462;14.346;2022-10-28T07:56:07;16.88;;;8.05;;
29568;SDS011;16501;51.462;14.346;2022-10-28T07:58:38;19.13;;;8.57;;
29568;SDS011;16501;51.462;14.346;2022-10-28T08:01:05;11.65;;;7.53;;
29568;SDS011;16501;51.462;14.346;2022-10-28T08:03:32;16.27;;;6.60;;
29568;SDS011;16501;51.462;14.346;2022-10-28T08:05:58;15.93;;;7.55;;
29568;SDS011;16501;51.462;14.346;2022-10-28T08:08:28;12.52;;;7.28;;
29568;SDS011;16501;51.462;14.346;2022-10-28T08:10:53;12.55;;;7.60;;
29568;SDS011;16501;51.462;14.346;2022-10-28T08:13:19;15.93;;;7.55;;
29568;SDS011;16501;51.462;14.346;2022-10-28T08:15:50;14.82;;;7.65;;
29568;SDS011;16501;51.462;14.346;2022-10-28T08:18:19;12.15;;;7.75;;
29568;SDS011;16501;51.462;14.346;2022-10-28T08:20:45;17.92;;;8.43;;
29568;SDS011;16501;51.462;14.346;2022-10-28T08:23:10;13.80;;;7.63;;
29568;SDS011;16501;51.462;14.346;2022-10-28T08:25:36;10.10;;;6.35;;
29568;SDS011;16501;51.462;14.346;2022-10-28T08:28:01;12.50;;;7.45;;
29568;SDS011;16501;51.462;14.346;2022-10-28T08:30:26;13.18;;;7.65;;
29568;SDS011;16501;51.462;14.346;2022-10-28T08:32:53;11.75;;;7.50;;
29568;SDS011;16501;51.462;14.346;2022-10-28T08:35:19;13.05;;;7.72;;
29568;SDS011;16501;51.462;14.346;2022-10-28T08:37:54;12.73;;;7.18;;
29568;SDS011;16501;51.462;14.346;2022-10-28T08:40:21;14.85;;;8.02;;
29568;SDS011;16501;51.462;14.346;2022-10-28T08:43:01;15.85;;;8.20;;
29568;SDS011;16501;51.462;14.346;2022-10-28T08:48:22;12.98;;;6.40;;
29568;SDS011;16501;51.462;14.346;2022-10-28T08:51:10;19.73;;;6.82;;
29568;SDS011;16501;51.462;14.346;2022-10-28T08:53:47;10.98;;;6.47;;
29568;SDS011;16501;51.462;14.346;2022-10-28T08:59:10;11.75;;;6.30;;
29568;SDS011;16501;51.462;14.346;2022-10-28T09:04:25;8.93;;;6.07;;
29568;SDS011;16501;51.462;14.346;2022-10-28T09:07:02;15.60;;;6.03;;
29568;SDS011;16501;51.462;14.346;2022-10-28T09:09:28;13.88;;;6.28;;
29568;SDS011;16501;51.462;14.346;2022-10-28T09:14:58;18.05;;;6.45;;
29568;SDS011;16501;51.462;14.346;2022-10-28T09:20:19;11.65;;;5.82;;
29568;SDS011;16501;51.462;14.346;2022-10-28T09:23:08;16.55;;;5.93;;
29568;SDS011;16501;51.462;14.346;2022-10-28T09:28:45;9.40;;;5.45;;
29568;SDS011;16501;51.462;14.346;2022-10-28T09:31:34;12.32;;;5.07;;
29568;SDS011;16501;51.462;14.346;2022-10-28T09:37:20;10.65;;;5.93;;
29568;SDS011;16501;51.462;14.346;2022-10-28T09:39:51;10.25;;;5.38;;
29568;SDS011;16501;51.462;14.346;2022-10-28T09:42:30;10.40;;;5.45;;
29568;SDS011;16501;51.462;14.346;2022-10-28T09:45:05;9.48;;;5.65;;
29568;SDS011;16501;51.462;14.346;2022-10-28T09:47:44;13.35;;;5.18;;
29568;SDS011;16501;51.462;14.346;2022-10-28T09:50:16;10.95;;;5.20;;
29568;SDS011;16501;51.462;14.346;2022-10-28T09:52:54;12.50;;;4.97;;
29568;SDS011;16501;51.462;14.346;2022-10-28T09:55:36;12.77;;;5.13;;
29568;SDS011;16501;51.462;14.346;2022-10-28T09:58:02;10.55;;;5.20;;
29568;SDS011;16501;51.462;14.346;2022-10-28T10:00:28;15.82;;;5.38;;
29568;SDS011;16501;51.462;14.346;2022-10-28T10:02:54;14.52;;;4.70;;
29568;SDS011;16501;51.462;14.346;2022-10-28T10:05:25;12.13;;;5.07;;
29568;SDS011;16501;51.462;14.346;2022-10-28T10:07:54;11.48;;;5.53;;
29568;SDS011;16501;51.462;14.346;2022-10-28T10:13:08;10.20;;;5.00;;
29568;SDS011;16501;51.462;14.346;2022-10-28T10:15:45;9.48;;;4.70;;
29568;SDS011;16501;51.462;14.346;2022-10-28T10:18:19;13.93;;;4.72;;
29568;SDS011;16501;51.462;14.346;2022-10-28T10:20:51;15.15;;;5.35;;
29568;SDS011;16501;51.462;14.346;2022-10-28T10:23:30;11.90;;;5.10;;
29568;SDS011;16501;51.462;14.346;2022-10-28T10:26:01;11.55;;;4.57;;
29568;SDS011;16501;51.462;14.346;2022-10-28T10:28:28;8.80;;;5.00;;
29568;SDS011;16501;51.462;14.346;2022-10-28T10:30:58;10.65;;;4.70;;
29568;SDS011;16501;51.462;14.346;2022-10-28T10:33:28;9.80;;;4.80;;
29568;SDS011;16501;51.462;14.346;2022-10-28T10:35:59;11.43;;;4.30;;
29568;SDS011;16501;51.462;14.346;2022-10-28T10:38:27;12.77;;;4.85;;
29568;SDS011;16501;51.462;14.346;2022-10-28T10:40:53;12.40;;;4.88;;
29568;SDS011;16501;51.462;14.346;2022-10-28T10:48:42;15.68;;;6.22;;
29568;SDS011;16501;51.462;14.346;2022-10-28T10:51:17;17.17;;;7.15;;
29568;SDS011;16501;51.462;14.346;2022-10-28T10:53:50;14.05;;;6.60;;
29568;SDS011;16501;51.462;14.346;2022-10-28T10:56:23;13.45;;;6.20;;
29568;SDS011;16501;51.462;14.346;2022-10-28T11:01:23;10.30;;;4.38;;
29568;SDS011;16501;51.462;14.346;2022-10-28T11:04:00;14.43;;;4.93;;
29568;SDS011;16501;51.462;14.346;2022-10-28T11:06:29;10.75;;;4.90;;
29568;SDS011;16501;51.462;14.346;2022-10-28T11:09:00;13.82;;;4.45;;
29568;SDS011;16501;51.462;14.346;2022-10-28T11:11:38;13.82;;;5.00;;
29568;SDS011;16501;51.462;14.346;2022-10-28T11:16:55;9.10;;;4.47;;
29568;SDS011;16501;51.462;14.346;2022-10-28T11:19:27;10.13;;;4.35;;
29568;SDS011;16501;51.462;14.346;2022-10-28T11:30:11;16.00;;;4.80;;
29568;SDS011;16501;51.462;14.346;2022-10-28T11:35:33;12.32;;;4.47;;
29568;SDS011;16501;51.462;14.346;2022-10-28T11:38:19;14.02;;;4.65;;
29568;SDS011;16501;51.462;14.346;2022-10-28T11:44:30;11.70;;;4.60;;
29568;SDS011;16501;51.462;14.346;2022-10-28T11:55:54;16.23;;;5.10;;
29568;SDS011;16501;51.462;14.346;2022-10-28T11:58:40;17.40;;;5.43;;
29568;SDS011;16501;51.462;14.346;2022-10-28T12:04:21;16.67;;;5.95;;
29568;SDS011;16501;51.462;14.346;2022-10-28T12:07:03;17.45;;;4.88;;
29568;SDS011;16501;51.462;14.346;2022-10-28T12:13:02;10.85;;;4.45;;
29568;SDS011;16501;51.462;14.346;2022-10-28T12:15:40;14.40;;;4.90;;
29568;SDS011;16501;51.462;14.346;2022-10-28T12:18:28;9.80;;;4.95;;
29568;SDS011;16501;51.462;14.346;2022-10-28T12:23:52;12.77;;;4.97;;
29568;SDS011;16501;51.462;14.346;2022-10-28T12:26:31;10.30;;;5.93;;
29568;SDS011;16501;51.462;14.346;2022-10-28T12:29:01;12.77;;;5.15;;
29568;SDS011;16501;51.462;14.346;2022-10-28T12:31:31;15.60;;;4.90;;
29568;SDS011;16501;51.462;14.346;2022-10-28T12:34:11;16.90;;;5.35;;
29568;SDS011;16501;51.462;14.346;2022-10-28T12:36:50;12.18;;;5.38;;
29568;SDS011;16501;51.462;14.346;2022-10-28T12:39:27;14.75;;;5.47;;
29568;SDS011;16501;51.462;14.346;2022-10-28T12:42:03;11.30;;;4.65;;
29568;SDS011;16501;51.462;14.346;2022-10-28T12:44:36;10.90;;;5.65;;
29568;SDS011;16501;51.462;14.346;2022-10-28T12:52:52;12.82;;;5.57;;
29568;SDS011;16501;51.462;14.346;2022-10-28T13:00:45;14.23;;;5.10;;
29568;SDS011;16501;51.462;14.346;2022-10-28T13:03:15;9.30;;;4.78;;
29568;SDS011;16501;51.462;14.346;2022-10-28T13:05:49;10.95;;;4.60;;
29568;SDS011;16501;51.462;14.346;2022-10-28T13:10:50;12.95;;;5.22;;
29568;SDS011;16501;51.462;14.346;2022-10-28T13:13:34;26.05;;;5.80;;
29568;SDS011;16501;51.462;14.346;2022-10-28T13:16:35;13.50;;;5.40;;
29568;SDS011;16501;51.462;14.346;2022-10-28T13:27:04;14.75;;;6.10;;
29568;SDS011;16501;51.462;14.346;2022-10-28T13:29:33;14.93;;;5.65;;
29568;SDS011;16501;51.462;14.346;2022-10-28T13:32:03;19.38;;;6.07;;
29568;SDS011;16501;51.462;14.346;2022-10-28T13:34:32;21.92;;;5.30;;
29568;SDS011;16501;51.462;14.346;2022-10-28T13:37:01;14.63;;;5.78;;
29568;SDS011;16501;51.462;14.346;2022-10-28T13:42:58;11.30;;;8.13;;
29568;SDS011;16501;51.462;14.346;2022-10-28T13:44:56;14.68;;;5.93;;
29568;SDS011;16501;51.462;14.346;2022-10-28T13:47:26;10.85;;;5.13;;
29568;SDS011;16501;51.462;14.346;2022-10-28T13:52:29;12.13;;;5.60;;
29568;SDS011;16501;51.462;14.346;2022-10-28T13:54:55;18.63;;;6.13;;
29568;SDS011;16501;51.462;14.346;2022-10-28T13:57:31;24.88;;;5.78;;
29568;SDS011;16501;51.462;14.346;2022-10-28T14:00:00;8.70;;;5.20;;
29568;SDS011;16501;51.462;14.346;2022-10-28T14:02:37;9.40;;;5.45;;
29568;SDS011;16501;51.462;14.346;2022-10-28T14:05:09;14.80;;;5.57;;
29568;SDS011;16501;51.462;14.346;2022-10-28T14:07:52;12.45;;;5.18;;
29568;SDS011;16501;51.462;14.346;2022-10-28T14:10:24;13.88;;;5.57;;
29568;SDS011;16501;51.462;14.346;2022-10-28T14:12:56;11.35;;;5.55;;
29568;SDS011;16501;51.462;14.346;2022-10-28T14:15:25;9.80;;;5.93;;
29568;SDS011;16501;51.462;14.346;2022-10-28T14:18:36;17.30;;;6.75;;
29568;SDS011;16501;51.462;14.346;2022-10-28T14:28:48;9.95;;;5.93;;
29568;SDS011;16501;51.462;14.346;2022-10-28T14:33:46;13.38;;;6.03;;
29568;SDS011;16501;51.462;14.346;2022-10-28T14:36:41;14.38;;;6.18;;
29568;SDS011;16501;51.462;14.346;2022-10-28T14:50:00;14.73;;;6.65;;
29568;SDS011;16501;51.462;14.346;2022-10-28T14:52:30;16.00;;;6.40;;
29568;SDS011;16501;51.462;14.346;2022-10-28T14:55:00;16.30;;;6.60;;
29568;SDS011;16501;51.462;14.346;2022-10-28T14:57:30;10.07;;;5.72;;
29568;SDS011;16501;51.462;14.346;2022-10-28T14:59:59;10.45;;;6.47;;
29568;SDS011;16501;51.462;14.346;2022-10-28T15:02:29;16.85;;;6.38;;
29568;SDS011;16501;51.462;14.346;2022-10-28T15:05:15;17.20;;;6.95;;
29568;SDS011;16501;51.462;14.346;2022-10-28T15:07:44;19.10;;;6.93;;
29568;SDS011;16501;51.462;14.346;2022-10-28T15:12:39;13.52;;;6.45;;
29568;SDS011;16501;51.462;14.346;2022-10-28T15:15:20;18.23;;;6.78;;
29568;SDS011;16501;51.462;14.346;2022-10-28T15:17:49;21.58;;;6.00;;
29568;SDS011;16501;51.462;14.346;2022-10-28T15:23:09;14.18;;;6.43;;
29568;SDS011;16501;51.462;14.346;2022-10-28T15:26:11;13.95;;;6.80;;
29568;SDS011;16501;51.462;14.346;2022-10-28T15:28:38;8.25;;;6.00;;
29568;SDS011;16501;51.462;14.346;2022-10-28T15:31:05;19.50;;;7.35;;
29568;SDS011;16501;51.462;14.346;2022-10-28T15:33:31;10.73;;;6.20;;
29568;SDS011;16501;51.462;14.346;2022-10-28T15:36:09;15.82;;;7.00;;
29568;SDS011;16501;51.462;14.346;2022-10-28T15:38:42;20.92;;;6.85;;
29568;SDS011;16501;51.462;14.346;2022-10-28T15:43:56;9.38;;;6.53;;
29568;SDS011;16501;51.462;14.346;2022-10-28T15:46:25;13.02;;;6.50;;
29568;SDS011;16501;51.462;14.346;2022-10-28T15:48:54;18.45;;;7.30;;
29568;SDS011;16501;51.462;14.346;2022-10-28T15:51:21;13.60;;;6.50;;
29568;SDS011;16501;51.462;14.346;2022-10-28T15:53:53;15.60;;;6.75;;
29568;SDS011;16501;51.462;14.346;2022-10-28T15:56:33;11.95;;;6.72;;
29568;SDS011;16501;51.462;14.346;2022-10-28T15:59:18;10.73;;;5.88;;
29568;SDS011;16501;51.462;14.346;2022-10-28T16:01:47;13.23;;;6.60;;
29568;SDS011;16501;51.462;14.346;2022-10-28T16:06:49;22.10;;;7.45;;
29568;SDS011;16501;51.462;14.346;2022-10-28T16:09:18;16.90;;;7.10;;
29568;SDS011;16501;51.462;14.346;2022-10-28T16:11:50;13.75;;;6.25;;
29568;SDS011;16501;51.462;14.346;2022-10-28T16:17:12;15.70;;;8.48;;
29568;SDS011;16501;51.462;14.346;2022-10-28T16:19:55;21.35;;;8.50;;
29568;SDS011;16501;51.462;14.346;2022-10-28T16:22:25;16.13;;;8.13;;
29568;SDS011;16501;51.462;14.346;2022-10-28T16:24:52;16.42;;;6.95;;
29568;SDS011;16501;51.462;14.346;2022-10-28T16:29:45;15.05;;;6.93;;
29568;SDS011;16501;51.462;14.346;2022-10-28T16:32:11;12.95;;;7.45;;
29568;SDS011;16501;51.462;14.346;2022-10-28T16:34:37;16.08;;;7.38;;
29568;SDS011;16501;51.462;14.346;2022-10-28T16:37:09;20.05;;;7.88;;
29568;SDS011;16501;51.462;14.346;2022-10-28T16:39:48;14.10;;;7.10;;
29568;SDS011;16501;51.462;14.346;2022-10-28T16:42:14;11.18;;;6.80;;
29568;SDS011;16501;51.462;14.346;2022-10-28T16:44:40;16.13;;;6.68;;
29568;SDS011;16501;51.462;14.346;2022-10-28T16:47:09;19.63;;;7.32;;
29568;SDS011;16501;51.462;14.346;2022-10-28T16:49:38;13.70;;;8.32;;
29568;SDS011;16501;51.462;14.346;2022-10-28T16:52:04;19.60;;;7.88;;
29568;SDS011;16501;51.462;14.346;2022-10-28T16:54:31;12.57;;;7.38;;
29568;SDS011;16501;51.462;14.346;2022-10-28T16:56:57;15.60;;;8.20;;
29568;SDS011;16501;51.462;14.346;2022-10-28T16:59:22;16.65;;;8.40;;
29568;SDS011;16501;51.462;14.346;2022-10-28T17:01:48;14.27;;;7.70;;
29568;SDS011;16501;51.462;14.346;2022-10-28T17:04:14;17.98;;;8.25;;
29568;SDS011;16501;51.462;14.346;2022-10-28T17:06:41;17.08;;;8.70;;
29568;SDS011;16501;51.462;14.346;2022-10-28T17:09:07;17.33;;;9.23;;
29568;SDS011;16501;51.462;14.346;2022-10-28T17:11:32;20.33;;;9.82;;
29568;SDS011;16501;51.462;14.346;2022-10-28T17:13:58;16.48;;;9.50;;
29568;SDS011;16501;51.462;14.346;2022-10-28T17:16:24;23.52;;;9.23;;
29568;SDS011;16501;51.462;14.346;2022-10-28T17:18:49;20.20;;;8.48;;
29568;SDS011;16501;51.462;14.346;2022-10-28T17:21:15;14.32;;;9.20;;
29568;SDS011;16501;51.462;14.346;2022-10-28T17:23:40;17.52;;;9.32;;
29568;SDS011;16501;51.462;14.346;2022-10-28T17:26:06;16.75;;;8.85;;
29568;SDS011;16501;51.462;14.346;2022-10-28T17:28:31;14.93;;;7.88;;